createdAt,value
2018-08-03T00:02:06.761Z,21.40
2018-08-03T00:04:35.220Z,21.40
2018-08-03T00:07:03.865Z,21.30
2018-08-03T00:09:32.378Z,21.30
2018-08-03T00:12:00.956Z,21.30
2018-08-03T00:14:29.608Z,21.20
2018-08-03T00:16:58.471Z,21.20
2018-08-03T00:19:26.972Z,21.20
2018-08-03T00:21:55.461Z,21.20
2018-08-03T00:24:23.902Z,21.20
2018-08-03T00:26:52.357Z,21.10
2018-08-03T00:29:20.848Z,21.10
2018-08-03T00:31:49.318Z,21.00
2018-08-03T00:36:46.026Z,21.00
2018-08-03T00:39:14.564Z,20.90
2018-08-03T00:41:43.144Z,20.80
2018-08-03T00:46:39.917Z,20.70
2018-08-03T00:49:08.482Z,20.70
2018-08-03T00:51:36.932Z,20.60
2018-08-03T00:54:05.446Z,20.60
2018-08-03T00:56:33.962Z,20.50
2018-08-03T00:59:02.542Z,20.50
2018-08-03T01:01:31.014Z,20.40
2018-08-03T01:03:59.457Z,20.40
2018-08-03T01:06:28.012Z,20.40
2018-08-03T01:08:56.475Z,20.30
2018-08-03T01:11:24.953Z,20.30
2018-08-03T01:13:53.404Z,20.30
2018-08-03T01:16:21.917Z,20.30
2018-08-03T01:18:50.399Z,20.40
2018-08-03T01:21:18.853Z,20.40
2018-08-03T01:23:47.370Z,20.40
2018-08-03T01:26:15.965Z,20.40
2018-08-03T01:28:44.443Z,20.40
2018-08-03T01:31:12.885Z,20.40
2018-08-03T01:33:41.374Z,20.40
2018-08-03T01:36:09.838Z,20.40
2018-08-03T01:38:38.343Z,20.40
2018-08-03T01:41:06.869Z,20.30
2018-08-03T01:43:35.306Z,20.20
2018-08-03T01:46:03.873Z,20.20
2018-08-03T01:48:32.354Z,20.20
2018-08-03T01:51:00.815Z,20.10
2018-08-03T01:53:29.345Z,20.10
2018-08-03T01:55:57.835Z,20.10
2018-08-03T01:58:26.317Z,20.00
2018-08-03T02:00:54.871Z,19.90
2018-08-03T02:03:24.099Z,19.90
2018-08-03T02:05:52.579Z,19.90
2018-08-03T02:08:21.096Z,19.90
2018-08-03T02:10:49.563Z,19.80
2018-08-03T02:13:17.994Z,19.90
2018-08-03T02:15:46.615Z,19.90
2018-08-03T02:18:15.077Z,19.80
2018-08-03T02:20:43.663Z,19.80
2018-08-03T02:23:12.097Z,19.80
2018-08-03T02:25:40.535Z,19.80
2018-08-03T02:28:09.453Z,19.80
2018-08-03T02:30:38.116Z,19.80
2018-08-03T02:33:06.590Z,19.70
2018-08-03T02:35:35.047Z,19.70
2018-08-03T02:38:03.496Z,19.70
2018-08-03T02:40:32.047Z,19.70
2018-08-03T02:43:00.549Z,19.70
2018-08-03T02:45:29.081Z,19.70
2018-08-03T02:47:57.527Z,19.70
2018-08-03T02:50:26.077Z,19.70
2018-08-03T02:52:54.613Z,19.70
2018-08-03T02:55:23.088Z,19.70
2018-08-03T02:57:51.570Z,19.60
2018-08-03T03:00:20.152Z,19.60
2018-08-03T03:02:48.638Z,19.60
2018-08-03T03:05:17.191Z,19.60
2018-08-03T03:07:45.653Z,19.60
2018-08-03T03:10:14.114Z,19.50
2018-08-03T03:12:42.610Z,19.60
2018-08-03T03:15:11.092Z,19.60
2018-08-03T03:17:39.652Z,19.50
2018-08-03T03:20:08.150Z,19.50
2018-08-03T03:22:36.585Z,19.50
2018-08-03T03:25:05.306Z,19.60
2018-08-03T03:27:33.756Z,19.50
2018-08-03T03:30:02.218Z,19.50
2018-08-03T03:32:30.755Z,19.50
2018-08-03T03:34:59.164Z,19.50
2018-08-03T03:37:28.232Z,19.40
2018-08-03T03:39:56.686Z,19.40
2018-08-03T03:42:25.138Z,19.40
2018-08-03T03:44:53.580Z,19.40
2018-08-03T03:47:22.161Z,19.40
2018-08-03T03:49:50.682Z,19.40
2018-08-03T03:52:19.173Z,19.40
2018-08-03T03:54:47.616Z,19.40
2018-08-03T03:57:16.086Z,19.40
2018-08-03T03:59:44.542Z,19.40
2018-08-03T04:02:14.384Z,19.40
2018-08-03T04:04:42.903Z,19.40
2018-08-03T04:07:11.522Z,19.40
2018-08-03T04:09:40.034Z,19.40
2018-08-03T04:12:08.518Z,19.40
2018-08-03T04:14:36.966Z,19.40
2018-08-03T04:17:05.454Z,19.40
2018-08-03T04:19:34.102Z,19.40
2018-08-03T04:22:02.640Z,19.40
2018-08-03T04:24:31.106Z,19.40
2018-08-03T04:26:59.634Z,19.40
2018-08-03T04:29:28.107Z,19.40
2018-08-03T04:31:57.108Z,19.40
2018-08-03T04:34:25.669Z,19.50
2018-08-03T04:36:54.242Z,19.50
2018-08-03T04:39:22.821Z,19.50
2018-08-03T04:41:51.358Z,19.50
2018-08-03T04:44:19.790Z,19.50
2018-08-03T04:46:48.299Z,19.50
2018-08-03T04:51:45.020Z,19.50
2018-08-03T04:54:13.495Z,19.50
2018-08-03T04:56:42.016Z,19.60
2018-08-03T04:59:10.445Z,19.60
2018-08-03T05:01:38.921Z,19.60
2018-08-03T05:04:07.415Z,19.60
2018-08-03T05:06:36.021Z,19.60
2018-08-03T05:09:06.498Z,19.70
2018-08-03T05:11:35.287Z,19.70
2018-08-03T05:14:03.773Z,19.70
2018-08-03T05:16:32.241Z,19.80
2018-08-03T05:19:00.739Z,19.90
2018-08-03T05:21:29.289Z,19.90
2018-08-03T05:26:26.128Z,20.00
2018-08-03T05:28:54.671Z,20.10
2018-08-03T05:31:23.217Z,20.10
2018-08-03T05:33:51.728Z,20.30
2018-08-03T05:36:20.234Z,20.30
2018-08-03T05:38:48.663Z,20.40
2018-08-03T05:43:45.315Z,20.50
2018-08-03T05:46:13.813Z,20.60
2018-08-03T05:48:42.518Z,20.70
2018-08-03T05:51:11.275Z,20.80
2018-08-03T05:53:39.744Z,20.90
2018-08-03T05:58:36.427Z,21.00
2018-08-03T06:01:04.865Z,21.10
2018-08-03T06:03:34.317Z,21.20
2018-08-03T06:06:02.894Z,21.30
2018-08-03T06:08:31.397Z,21.40
2018-08-03T06:10:59.971Z,21.60
2018-08-03T06:13:28.497Z,21.70
2018-08-03T06:15:57.053Z,21.70
2018-08-03T06:18:25.624Z,21.90
2018-08-03T06:20:54.212Z,22.00
2018-08-03T06:23:22.685Z,22.00
2018-08-03T06:25:51.212Z,22.10
2018-08-03T06:28:19.672Z,22.20
2018-08-03T06:30:48.213Z,22.40
2018-08-03T06:33:16.692Z,22.40
2018-08-03T06:35:45.314Z,22.50
2018-08-03T06:38:13.748Z,22.50
2018-08-03T06:40:42.249Z,22.60
2018-08-03T06:43:11.111Z,22.70
2018-08-03T06:45:39.721Z,22.80
2018-08-03T06:48:08.193Z,22.80
2018-08-03T06:53:04.844Z,22.80
2018-08-03T06:55:33.353Z,22.90
2018-08-03T06:58:01.813Z,22.90
2018-08-03T07:02:58.513Z,23.10
2018-08-03T07:05:26.917Z,23.20
2018-08-03T07:07:55.455Z,23.20
2018-08-03T07:10:24.173Z,23.40
2018-08-03T07:12:53.235Z,23.40
2018-08-03T07:15:22.290Z,23.50
2018-08-03T07:17:50.749Z,23.60
2018-08-03T07:20:19.668Z,23.70
2018-08-03T07:22:47.990Z,23.80
2018-08-03T07:25:16.461Z,23.80
2018-08-03T07:27:44.909Z,23.90
2018-08-03T07:30:13.446Z,24.00
2018-08-03T07:32:42.163Z,24.10
2018-08-03T07:35:10.793Z,24.20
2018-08-03T07:37:39.230Z,24.30
2018-08-03T07:40:08.950Z,24.40
2018-08-03T07:42:37.386Z,24.50
2018-08-03T07:45:06.140Z,24.60
2018-08-03T07:47:34.590Z,24.70
2018-08-03T07:50:03.156Z,24.80
2018-08-03T07:52:31.632Z,25.00
2018-08-03T07:57:28.380Z,25.10
2018-08-03T07:59:56.956Z,25.10
2018-08-03T08:02:25.504Z,25.20
2018-08-03T08:04:54.036Z,25.30
2018-08-03T08:07:22.725Z,25.40
2018-08-03T08:09:51.593Z,25.50
2018-08-03T08:12:20.181Z,25.70
2018-08-03T08:14:48.681Z,25.80
2018-08-03T08:17:17.394Z,26.00
2018-08-03T08:19:45.849Z,26.20
2018-08-03T08:22:14.511Z,26.40
2018-08-03T08:24:43.000Z,26.60
2018-08-03T08:27:11.517Z,27.00
2018-08-03T08:29:40.002Z,27.30
2018-08-03T08:32:08.531Z,27.30
2018-08-03T08:34:37.376Z,27.40
2018-08-03T08:37:06.147Z,27.50
2018-08-03T08:39:34.728Z,27.60
2018-08-03T08:42:03.215Z,27.70
2018-08-03T08:44:31.698Z,27.80
2018-08-03T08:47:00.246Z,28.00
2018-08-03T08:49:28.856Z,28.00
2018-08-03T08:51:57.445Z,28.30
2018-08-03T08:54:25.937Z,28.70
2018-08-03T08:56:54.382Z,29.00
2018-08-03T08:59:22.899Z,29.10
2018-08-03T09:01:51.429Z,29.20
2018-08-03T09:04:20.014Z,29.30
2018-08-03T09:06:48.532Z,29.50
2018-08-03T09:09:17.166Z,29.70
2018-08-03T09:11:45.613Z,30.10
2018-08-03T09:14:14.198Z,30.30
2018-08-03T09:16:42.728Z,30.10
2018-08-03T09:19:11.298Z,30.20
2018-08-03T09:21:39.850Z,30.50
2018-08-03T09:24:08.331Z,30.50
2018-08-03T09:26:37.140Z,30.50
2018-08-03T09:29:05.639Z,30.40
2018-08-03T09:31:34.206Z,30.50
2018-08-03T09:34:02.718Z,30.60
2018-08-03T09:36:31.528Z,30.60
2018-08-03T09:38:59.950Z,30.90
2018-08-03T09:41:28.495Z,31.30
2018-08-03T09:43:56.999Z,31.10
2018-08-03T09:46:25.638Z,31.20
2018-08-03T09:48:54.082Z,31.60
2018-08-03T09:51:22.513Z,31.90
2018-08-03T09:53:51.356Z,32.30
2018-08-03T09:56:19.812Z,32.30
2018-08-03T10:01:16.460Z,32.40
2018-08-03T10:03:44.897Z,32.60
2018-08-03T10:06:13.755Z,32.60
2018-08-03T10:08:42.245Z,32.60
2018-08-03T10:11:11.133Z,32.60
2018-08-03T10:13:39.606Z,32.60
2018-08-03T10:18:36.255Z,32.80
2018-08-03T10:21:04.775Z,32.90
2018-08-03T10:23:33.351Z,32.90
2018-08-03T10:26:01.883Z,32.90
2018-08-03T10:28:30.320Z,33.00
2018-08-03T10:30:58.825Z,33.00
2018-08-03T10:33:27.267Z,33.10
2018-08-03T10:35:55.790Z,33.50
2018-08-03T10:38:24.443Z,33.50
2018-08-03T10:40:52.997Z,33.70
2018-08-03T10:43:21.488Z,34.10
2018-08-03T10:45:50.025Z,34.20
2018-08-03T10:48:18.489Z,34.30
2018-08-03T10:50:47.025Z,34.50
2018-08-03T10:55:43.648Z,34.70
2018-08-03T10:58:12.162Z,34.50
2018-08-03T11:00:40.702Z,34.00
2018-08-03T11:03:09.175Z,33.90
2018-08-03T11:05:37.718Z,34.10
2018-08-03T11:08:06.251Z,34.30
2018-08-03T11:10:34.999Z,34.60
2018-08-03T11:15:31.604Z,35.90
2018-08-03T11:18:00.146Z,35.90
2018-08-03T11:22:56.886Z,35.90
2018-08-03T11:25:25.329Z,36.10
2018-08-03T11:27:53.908Z,36.70
2018-08-03T11:30:22.478Z,36.80
2018-08-03T11:32:50.957Z,36.10
2018-08-03T11:35:19.524Z,35.70
2018-08-03T11:37:47.992Z,35.40
2018-08-03T11:42:44.766Z,35.50
2018-08-03T11:45:13.358Z,36.10
2018-08-03T11:47:41.808Z,36.80
2018-08-03T11:50:11.346Z,37.00
2018-08-03T11:52:40.446Z,36.70
2018-08-03T11:55:08.878Z,37.00
2018-08-03T11:57:37.347Z,37.60
2018-08-03T12:00:06.151Z,37.60
2018-08-03T12:02:34.906Z,37.90
2018-08-03T12:05:03.414Z,38.20
2018-08-03T12:07:31.952Z,38.20
2018-08-03T12:10:00.505Z,38.20
2018-08-03T12:12:29.014Z,38.50
2018-08-03T12:14:57.511Z,38.10
2018-08-03T12:17:25.947Z,37.50
2018-08-03T12:19:54.536Z,36.50
2018-08-03T12:22:22.982Z,36.20
2018-08-03T12:24:51.435Z,35.90
2018-08-03T12:27:19.873Z,36.00
2018-08-03T12:29:48.438Z,36.30
2018-08-03T12:32:16.905Z,36.80
2018-08-03T12:34:45.358Z,37.70
2018-08-03T12:37:13.959Z,38.00
2018-08-03T12:39:42.453Z,37.60
2018-08-03T12:42:10.926Z,36.60
2018-08-03T12:44:39.533Z,36.30
2018-08-03T12:47:08.032Z,36.20
2018-08-03T12:49:36.494Z,36.30
2018-08-03T12:52:05.038Z,36.10
2018-08-03T12:54:33.527Z,36.10
2018-08-03T12:57:02.103Z,36.20
2018-08-03T12:59:30.594Z,36.20
2018-08-03T13:04:27.291Z,36.20
2018-08-03T13:06:55.853Z,36.60
2018-08-03T13:09:24.293Z,36.40
2018-08-03T13:11:52.739Z,36.30
2018-08-03T13:14:21.317Z,36.40
2018-08-03T13:16:49.781Z,36.20
2018-08-03T13:19:18.251Z,36.30
2018-08-03T13:21:46.729Z,36.50
2018-08-03T13:24:15.209Z,36.60
2018-08-03T13:26:43.788Z,36.60
2018-08-03T13:29:12.257Z,36.30
2018-08-03T13:31:40.841Z,36.10
2018-08-03T13:34:09.277Z,35.90
2018-08-03T13:36:37.909Z,35.90
2018-08-03T13:44:04.478Z,36.20
2018-08-03T13:46:32.923Z,36.20
2018-08-03T13:49:01.387Z,36.70
2018-08-03T13:51:29.958Z,37.40
2018-08-03T13:53:58.454Z,38.10
2018-08-03T13:56:27.011Z,38.70
2018-08-03T13:58:55.517Z,39.10
2018-08-03T14:01:35.347Z,39.10
2018-08-03T14:04:04.007Z,38.40
2018-08-03T14:06:32.411Z,37.50
2018-08-03T14:09:00.966Z,37.10
2018-08-03T14:11:29.436Z,37.00
2018-08-03T14:13:57.934Z,36.30
2018-08-03T14:16:26.406Z,35.90
2018-08-03T14:18:54.917Z,36.00
2018-08-03T14:21:23.474Z,36.60
2018-08-03T14:23:51.940Z,36.90
2018-08-03T14:26:20.412Z,36.90
2018-08-03T14:28:48.848Z,36.60
2018-08-03T14:31:17.332Z,36.60
2018-08-03T14:33:45.951Z,36.60
2018-08-03T14:36:14.512Z,36.60
2018-08-03T14:38:42.945Z,36.70
2018-08-03T14:41:11.580Z,36.60
2018-08-03T14:43:40.157Z,36.20
2018-08-03T14:46:08.738Z,36.00
2018-08-03T14:48:37.242Z,36.30
2018-08-03T14:51:05.883Z,36.70
2018-08-03T14:53:34.609Z,36.60
2018-08-03T14:56:03.245Z,36.20
2018-08-03T14:58:31.833Z,36.10
2018-08-03T15:01:00.452Z,36.20
2018-08-03T15:03:29.054Z,36.00
2018-08-03T15:05:57.619Z,35.80
2018-08-03T15:08:26.137Z,35.40
2018-08-03T15:10:56.709Z,35.30
2018-08-03T15:13:25.221Z,35.40
2018-08-03T15:15:53.765Z,35.30
2018-08-03T15:18:22.247Z,35.10
2018-08-03T15:20:50.768Z,35.10
2018-08-03T15:23:19.366Z,34.90
2018-08-03T15:25:47.830Z,34.80
2018-08-03T15:28:16.314Z,34.70
2018-08-03T15:30:44.903Z,34.60
2018-08-03T15:33:13.388Z,34.60
2018-08-03T15:35:41.858Z,34.60
2018-08-03T15:38:10.340Z,34.70
2018-08-03T15:40:38.955Z,34.90
2018-08-03T15:43:07.431Z,34.90
2018-08-03T15:45:35.880Z,34.60
2018-08-03T15:48:04.484Z,34.40
2018-08-03T15:50:33.065Z,34.30
2018-08-03T15:53:01.929Z,34.40
2018-08-03T15:55:30.423Z,34.40
2018-08-03T15:57:58.892Z,34.40
2018-08-03T16:00:27.349Z,34.30
2018-08-03T16:02:55.849Z,34.20
2018-08-03T16:05:24.341Z,34.00
2018-08-03T16:07:52.800Z,34.00
2018-08-03T16:10:21.281Z,34.00
2018-08-03T16:12:49.763Z,34.00
2018-08-03T16:15:18.258Z,34.00
2018-08-03T16:20:15.022Z,34.00
2018-08-03T16:22:43.641Z,33.90
2018-08-03T16:25:12.176Z,33.90
2018-08-03T16:27:40.701Z,33.70
2018-08-03T16:30:10.011Z,33.70
2018-08-03T16:32:38.607Z,33.60
2018-08-03T16:35:08.023Z,33.50
2018-08-03T16:37:36.504Z,33.50
2018-08-03T16:40:06.102Z,33.50
2018-08-03T16:42:34.580Z,33.50
2018-08-03T16:45:03.049Z,33.40
2018-08-03T16:47:31.627Z,33.30
2018-08-03T16:50:00.121Z,33.20
2018-08-03T16:52:28.577Z,33.30
2018-08-03T16:54:57.160Z,33.30
2018-08-03T16:57:25.763Z,33.30
2018-08-03T16:59:54.373Z,33.30
2018-08-03T17:02:23.166Z,33.10
2018-08-03T17:04:51.966Z,33.10
2018-08-03T17:07:20.830Z,33.00
2018-08-03T17:09:49.316Z,33.10
2018-08-03T17:12:17.769Z,33.10
2018-08-03T17:17:14.528Z,32.90
2018-08-03T17:19:43.050Z,32.90
2018-08-03T17:22:11.923Z,32.90
2018-08-03T17:24:40.393Z,32.90
2018-08-03T17:27:08.972Z,32.90
2018-08-03T17:29:37.447Z,32.90
2018-08-03T17:32:05.955Z,32.90
2018-08-03T17:37:02.590Z,32.80
2018-08-03T17:39:31.048Z,32.80
2018-08-03T17:41:59.562Z,32.80
2018-08-03T17:44:28.016Z,32.70
2018-08-03T17:46:56.590Z,32.40
2018-08-03T17:49:25.074Z,32.20
2018-08-03T17:51:53.552Z,32.10
2018-08-03T17:54:22.288Z,32.00
2018-08-03T17:56:50.782Z,31.90
2018-08-03T17:59:19.235Z,31.90
2018-08-03T18:01:47.676Z,31.80
2018-08-03T18:04:16.329Z,31.60
2018-08-03T18:06:44.810Z,31.60
2018-08-03T18:09:13.278Z,31.60
2018-08-03T18:11:41.755Z,31.60
2018-08-03T18:14:10.227Z,31.50
2018-08-03T18:16:38.856Z,31.50
2018-08-03T18:19:07.352Z,31.40
2018-08-03T18:21:35.925Z,31.30
2018-08-03T18:24:04.386Z,31.20
2018-08-03T18:26:32.850Z,31.20
2018-08-03T18:29:01.434Z,31.10
2018-08-03T18:31:29.946Z,30.90
2018-08-03T18:33:58.375Z,30.90
2018-08-03T18:36:26.857Z,30.80
2018-08-03T18:38:55.366Z,30.80
2018-08-03T18:41:23.845Z,30.70
2018-08-03T18:43:52.449Z,30.70
2018-08-03T18:46:21.367Z,30.60
2018-08-03T18:48:50.538Z,30.50
2018-08-03T18:51:18.988Z,30.50
2018-08-03T18:53:47.466Z,30.40
2018-08-03T18:56:15.954Z,30.40
2018-08-03T18:58:44.693Z,30.30
2018-08-03T19:01:13.147Z,30.30
2018-08-03T19:03:41.623Z,30.20
2018-08-03T19:06:10.208Z,30.10
2018-08-03T19:08:39.037Z,30.10
2018-08-03T19:11:07.491Z,30.00
2018-08-03T19:16:04.272Z,29.80
2018-08-03T19:18:32.825Z,29.70
2018-08-03T19:21:01.429Z,29.60
2018-08-03T19:23:30.034Z,29.50
2018-08-03T19:25:58.560Z,29.50
2018-08-03T19:28:27.157Z,29.40
2018-08-03T19:30:55.693Z,29.30
2018-08-03T19:33:24.227Z,29.30
2018-08-03T19:35:52.750Z,29.20
2018-08-03T19:38:21.309Z,29.10
2018-08-03T19:40:49.952Z,29.00
2018-08-03T19:43:18.810Z,29.00
2018-08-03T19:45:47.326Z,28.90
2018-08-03T19:48:15.789Z,28.80
2018-08-03T19:50:44.355Z,28.70
2018-08-03T19:53:12.905Z,28.70
2018-08-03T19:55:41.503Z,28.60
2018-08-03T19:58:10.037Z,28.60
2018-08-03T20:00:38.804Z,28.50
2018-08-03T20:03:07.407Z,28.40
2018-08-03T20:05:35.870Z,28.30
2018-08-03T20:08:04.349Z,28.20
2018-08-03T20:10:32.783Z,28.20
2018-08-03T20:13:01.223Z,28.20
2018-08-03T20:15:29.784Z,28.10
2018-08-03T20:17:58.462Z,28.10
2018-08-03T20:20:27.146Z,28.00
2018-08-03T20:22:55.646Z,28.00
2018-08-03T20:25:24.215Z,27.80
2018-08-03T20:27:53.655Z,27.80
2018-08-03T20:30:22.250Z,27.80
2018-08-03T20:32:50.722Z,27.70
2018-08-03T20:35:19.293Z,27.60
2018-08-03T20:37:47.871Z,27.50
2018-08-03T20:40:16.345Z,27.50
2018-08-03T20:42:44.795Z,27.40
2018-08-03T20:45:13.343Z,27.40
2018-08-03T20:47:41.885Z,27.30
2018-08-03T20:50:10.332Z,27.20
2018-08-03T20:52:38.892Z,27.20
2018-08-03T20:55:07.355Z,27.10
2018-08-03T20:57:35.890Z,27.00
2018-08-03T21:00:04.831Z,27.00
2018-08-03T21:02:33.263Z,27.00
2018-08-03T21:07:29.952Z,26.80
2018-08-03T21:09:58.422Z,26.80
2018-08-03T21:12:26.967Z,26.70
2018-08-03T21:14:55.730Z,26.60
2018-08-03T21:17:24.387Z,26.50
2018-08-03T21:19:52.946Z,26.40
2018-08-03T21:22:21.506Z,26.20
2018-08-03T21:24:49.956Z,26.10
2018-08-03T21:27:18.468Z,26.10
2018-08-03T21:29:46.986Z,26.10
2018-08-03T21:32:15.549Z,26.00
2018-08-03T21:34:44.126Z,26.00
2018-08-03T21:37:29.213Z,25.90
2018-08-03T21:39:57.705Z,25.90
2018-08-03T21:42:26.168Z,25.70
2018-08-03T21:44:54.685Z,25.70
2018-08-03T21:47:23.124Z,25.70
2018-08-03T21:49:51.559Z,25.60
2018-08-03T21:52:20.054Z,25.60
2018-08-03T21:54:48.621Z,25.60
2018-08-03T21:57:17.093Z,25.50
2018-08-03T21:59:45.657Z,25.40
2018-08-03T22:02:14.129Z,25.40
2018-08-03T22:04:42.566Z,25.30
2018-08-03T22:07:11.446Z,25.30
2018-08-03T22:09:39.934Z,25.20
2018-08-03T22:12:08.624Z,25.20
2018-08-03T22:14:37.157Z,25.20
2018-08-03T22:17:05.671Z,25.10
2018-08-03T22:19:34.357Z,25.10
2018-08-03T22:22:02.811Z,25.00
2018-08-03T22:24:31.285Z,24.90
2018-08-03T22:26:59.756Z,24.90
2018-08-03T22:29:28.253Z,24.80
2018-08-03T22:31:56.733Z,24.80
2018-08-03T22:34:25.207Z,24.70
2018-08-03T22:36:53.754Z,24.60
2018-08-03T22:39:22.201Z,24.60
2018-08-03T22:41:50.730Z,24.50
2018-08-03T22:44:19.182Z,24.40
2018-08-03T22:46:47.673Z,24.40
2018-08-03T22:49:16.238Z,24.30
2018-08-03T22:51:44.682Z,24.30
2018-08-03T22:54:13.300Z,24.30
2018-08-03T22:56:41.799Z,24.30
2018-08-03T22:59:10.243Z,24.30
2018-08-03T23:01:38.694Z,24.20
2018-08-03T23:04:07.230Z,24.10
2018-08-03T23:06:35.714Z,24.00
2018-08-03T23:09:05.854Z,23.90
2018-08-03T23:11:34.341Z,23.90
2018-08-03T23:14:02.881Z,23.80
2018-08-03T23:16:31.394Z,23.70
2018-08-03T23:21:28.586Z,23.70
2018-08-03T23:23:57.058Z,23.70
2018-08-03T23:26:25.500Z,23.60
2018-08-03T23:28:53.950Z,23.60
2018-08-03T23:31:22.394Z,23.50
2018-08-03T23:33:50.952Z,23.40
2018-08-03T23:36:19.642Z,23.30
2018-08-03T23:38:48.138Z,23.30
2018-08-03T23:41:16.603Z,23.20
2018-08-03T23:43:45.088Z,23.10
2018-08-03T23:46:13.613Z,23.10
2018-08-03T23:48:42.166Z,23.10
2018-08-03T23:51:10.636Z,23.00
2018-08-03T23:53:39.122Z,23.00
2018-08-03T23:56:07.566Z,23.00
2018-08-03T23:58:36.007Z,23.00
